Aviation Digital Data Service (ADDS)

Output produced by METARs form (0213 UTC 20 January 2022)
found at http://www.aviationweather.gov/metar/data/
 
KILE 200156Z AUTO 35017G25KT 10SM CLR 12/03 A3008 RMK AO2 PK WND 36026/0135 SLP181 T01170028
KILE 200056Z AUTO 35016G24KT 10SM CLR 14/04 A3002 RMK AO2 SLP160 T01440039
KILE 192356Z AUTO 35012G25KT 10SM FEW090 17/04 A2997 RMK AO2 SLP144 T01670039 10261 20167 53032
KILE 192256Z AUTO 36017G26KT 10SM BKN090 21/04 A2992 RMK AO2 PK WND 02026/2253 WSHFT 2200 SLP124 T02060044
KILE 192225Z AUTO 36012KT 10SM BKN090 23/09 A2990 RMK AO2 WSHFT 2200
KILE 192156Z AUTO 31006G15KT 10SM BKN085 BKN120 26/06 A2988 RMK AO2 SLP107 T02610056
KILE 192056Z AUTO 00000KT 10SM FEW120 25/08 A2988 RMK AO2 SLP107 T02500078 56019
KILE 191956Z AUTO 31005KT 10SM CLR 24/09 A2989 RMK AO2 SLP110 T02390089
KILE 191856Z AUTO 22006KT 10SM CLR 24/12 A2991 RMK AO2 SLP116 T02440117
KILE 191756Z AUTO 20008KT 10SM CLR 22/12 A2993 RMK AO2 SLP127 T02220117 10233 20122 58007
KILE 191656Z AUTO 22009KT 10SM CLR 21/13 A2995 RMK AO2 SLP133 T02110133
KILE 191556Z AUTO 21010KT 10SM CLR 17/14 A2996 RMK AO2 SLP137 T01720144
KILE 191456Z AUTO 22005KT 10SM CLR 15/14 A2996 RMK AO2 SLP138 T01500144 51023
KILE 191356Z AUTO 29004KT 9SM CLR 13/13 A2994 RMK AO2 SLP129 T01330133
KILE 191350Z AUTO 00000KT 4SM BR CLR 13/13 A2993 RMK AO2
KILE 191336Z AUTO 00000KT 1 3/4SM BR CLR 13/13 A2992 RMK AO2 VIS 3/4V5
KILE 191327Z AUTO 00000KT 4SM BR CLR 13/13 A2992 RMK AO2
KILE 191317Z AUTO 19004KT 1 1/2SM BR CLR 12/12 A2992 RMK AO2
KILE 191308Z AUTO 19004KT 3SM BR CLR 13/13 A2991 RMK AO2
KILE 191259Z AUTO 00000KT 1 3/4SM BR CLR 13/13 A2991 RMK AO2 VIS 1/2V5
KILE 191256Z AUTO 00000KT 4SM BR CLR 13/12 A2991 RMK AO2 SLP118 T01280122
KILE 191156Z AUTO 19007KT 10SM CLR 14/13 A2989 RMK AO2 SLP112 T01390133 10156 20133 53002
KILE 191121Z AUTO 19008KT 10SM FEW011 14/13 A2988 RMK AO2
KILE 191056Z AUTO 19006KT 10SM OVC013 14/13 A2988 RMK AO2 SLP108 T01440133
KILE 191041Z AUTO 19006KT 10SM BKN013 14/13 A2988 RMK AO2
KILE 190956Z AUTO 19008KT 10SM CLR 14/13 A2987 RMK AO2 SLP107 T01440133
KILE 190856Z AUTO 19008KT 10SM CLR 14/13 A2988 RMK AO2 SLP109 T01390128 58012
KILE 190756Z AUTO 19011KT 10SM CLR 14/13 A2989 RMK AO2 SLP114 T01440133
KILE 190656Z AUTO 20011KT 10SM CLR 15/13 A2991 RMK AO2 SLP118 T01500128
KILE 190556Z AUTO 18010KT 10SM CLR 16/12 A2992 RMK AO2 SLP122 T01560122 10189 20156 402280061 51012
KILE 190456Z AUTO 18011G18KT 10SM CLR 16/12 A2991 RMK AO2 SLP121 T01610117
KILE 190356Z AUTO 17012KT 10SM CLR 16/09 A2990 RMK AO2 SLP118 T01610094
KILE 190256Z AUTO 17009KT 10SM CLR 16/09 A2988 RMK AO2 SLP111 T01610089 51010